Weather observations for the past three days for
Blair Municipal Airport
Imperial (Metric)
Date Time (cdt) Wind (mph) Vis. (mi.) Weather Sky Cond. Temperature (ºF) Relative Humidity Wind Chill (°F) Heat Index (°F) Pressure Precipitation (in)
Air Dwpt 6 hour altimeter (in) sea level (mb) 1 hr 3 hr 6 hr
Max. Min.
03 16:55 NW 14 10.00 Fair CLR 73.9 32.4 22% 29.8 0.0
03 16:35 NW 7 10.00 Fair CLR 74.5 33.8 23% 29.81 0.0
03 16:15 NW 10 10.00 Fair CLR 73.9 32.4 22% 29.82 0.0
03 15:55 N 6 10.00 Fair CLR 73 32.5 23% 29.82 0.0
03 15:35 W 10 10.00 Fair CLR 72.9 31.8 22% 29.83 0.0
03 15:15 NW 8 10.00 Fair CLR 73 34.7 25% 29.84 0.0
03 14:55 NW 9 G 16 10.00 Fair CLR 71.8 33.6 25% 29.84 0.0
03 14:35 NW 9 10.00 Fair CLR 71.1 34 26% 29.85 0.0
03 14:15 NW 6 G 16 10.00 Fair CLR 70.3 33.4 26% 29.86 0.0
03 13:55 NW 10 10.00 Fair CLR 71.1 33.3 25% 29.86 0.0
03 13:35 N 7 10.00 Fair CLR 70.3 34.3 27% 29.87 0.0
03 13:15 N 12 10.00 Fair CLR 69.3 33.1 26% 29.88 0.0
03 12:55 N 12 10.00 Fair CLR 68.7 33.4 70 53.2 27% 29.88 0.0
03 12:35 N 12 G 18 10.00 Fair CLR 70 34.7 27% 29.88 0.0
03 12:15 NW 10 G 17 10.00 Fair CLR 68 33.1 27% 29.89 0.0
03 11:55 NW 9 G 18 10.00 Fair CLR 68.5 34.7 29% 29.89 0.0
03 11:35 N 12 10.00 Fair CLR 68 34.9 30% 29.89 0.0
03 11:15 N 14 G 17 10.00 Fair CLR 66.7 33.3 29% 29.89 0.0
03 10:55 N 9 10.00 Fair CLR 65.5 36 34% 29.89 0.0
03 10:35 N 9 G 16 10.00 Fair CLR 64.9 36.3 35% 29.88 0.0
03 10:15 N 9 10.00 Fair CLR 63.5 36.5 37% 29.88 0.0
03 09:55 NW 7 10.00 Fair CLR 61.7 37.4 41% 29.88 0.0
03 09:35 NW 8 10.00 Fair CLR 59 36.1 43% 29.88 0.0
03 09:15 NW 7 10.00 Fair CLR 58.3 35.1 42% 29.86 0.0
03 08:55 NW 6 10.00 Fair CLR 57.9 33.8 40% 29.87 0.0
03 08:35 W 5 10.00 Fair CLR 57.2 33.4 41% 29.86 0.0
03 08:15 SW 7 10.00 Fair CLR 56.3 32.9 41% 29.86 0.0
03 07:55 SW 5 10.00 Fair CLR 55.4 32.4 42% 29.84 0.0
03 07:35 SW 10 10.00 Fair CLR 53.6 32.4 45% 29.85 0.0
03 07:15 SW 10 10.00 Fair CLR 53.8 31.3 42% 29.84 0.0
03 06:55 SW 10 10.00 Fair CLR 53.6 30.4 57.6 51.6 41% 29.84 0.0
03 06:35 SW 10 10.00 Fair CLR 53.4 29.5 40% 29.84 0.0
03 06:15 SW 10 10.00 Fair CLR 52.9 29.1 40% 29.83 0.0
03 05:35 W 8 10.00 Fair CLR 53.6 29.1 39% 29.84 0.0
03 05:15 W 7 10.00 Fair CLR 53.1 30.2 42% 29.86 0.0
03 04:55 W 9 10.00 Fair CLR 54.9 29.5 38% 29.86 0.0
03 04:35 SW 13 10.00 Fair CLR 55.4 29.3 37% 29.83 0.0
03 04:15 SW 15 G 22 10.00 Fair CLR 55.4 29.1 37% 29.83 0.0
03 03:55 SW 13 G 21 10.00 Fair CLR 55.8 28.6 35% 29.84 0.0
03 03:35 SW 16 G 22 10.00 Fair CLR 55.6 28.4 35% 29.84 0.0
03 03:15 S 13 10.00 Fair CLR 55.8 28.2 35% 29.84 0.0
03 02:55 S 15 10.00 Fair CLR 55.8 28.2 35% 29.85 0.0
03 02:35 S 15 10.00 Fair CLR 56.1 28.2 34% 29.85 0.0
03 02:15 S 15 10.00 Fair CLR 56.5 27.9 33% 29.85 0.0
03 01:55 S 15 10.00 Fair CLR 56.7 27.7 33% 29.86 0.0
03 01:35 S 17 10.00 Fair CLR 56.8 27.5 33% 29.86 0.0
03 01:15 S 20 10.00 Fair CLR 57.4 27.1 31% 29.87 0.0
03 00:55 S 16 10.00 Fair CLR 57.2 26.8 66.7 55 31% 29.88 0.0
03 00:35 S 17 G 22 10.00 Fair CLR 57.4 27.1 31% 29.88 0.0
03 00:15 S 18 10.00 Fair CLR 56.7 27.7 33% 29.88 0.0
02 23:55 S 15 10.00 Fair CLR 56.3 27.5 33% 29.89 0.0
02 23:35 S 13 10.00 Fair CLR 56.7 27.3 32% 29.89 0.0
02 23:15 S 15 10.00 Fair CLR 57.2 26.8 31% 29.9 0.0
02 22:55 S 14 10.00 Fair CLR 57 26.8 31% 29.91 0.0
02 22:35 S 13 10.00 Fair CLR 57.2 27 31% 29.92 0.0
02 22:15 S 12 10.00 Fair CLR 57.6 27.1 31% 29.92 0.0
02 21:55 S 10 10.00 Fair CLR 57.7 26.8 31% 29.93 0.0
02 21:35 S 9 10.00 Fair CLR 57.7 26.8 31% 29.93 0.0
02 21:15 S 7 10.00 Fair CLR 55.2 28.8 36% 29.94 0.0
02 20:55 S 5 10.00 Fair CLR 58.3 26.6 30% 29.95 0.0
02 20:35 S 5 10.00 Fair CLR 61.3 24.6 25% 29.96 0.0
02 20:15 S 3 10.00 Fair CLR 61 26.2 27% 29.96 0.0
02 19:55 S 6 10.00 Fair CLR 63 26.1 25% 29.96 0.0
02 19:35 S 7 10.00 Fair CLR 65.5 23.9 21% 29.96 0.0
02 19:15 SW 9 10.00 Fair CLR 66.6 22.1 18% 29.96 0.0
02 18:55 SW 8 10.00 Fair CLR 66.7 19.4 67.5 59.4 16% 29.97 0.0
02 18:35 SW 9 10.00 Fair CLR 67.1 21 17% 29.98 0.0
02 18:15 S 8 10.00 Fair CLR 67.1 21.6 18% 29.99 0.0
02 17:55 S 9 10.00 Fair CLR 67.5 21.9 18% 30 0.0
02 17:35 SW 10 10.00 Fair CLR 66.7 22.5 19% 30 0.0
02 17:15 W 8 10.00 Fair CLR 66.7 21.7 18% 30.01 0.0
02 16:55 SW 10 10.00 Fair CLR 66 21.7 18% 30.02 0.0
02 16:35 SW 12 G 18 10.00 Fair CLR 65.8 22.8 19% 30.03 0.0
02 16:15 W 8 10.00 Fair CLR 64.9 21.7 19% 30.04 0.0
02 15:55 S 9 10.00 Fair CLR 65.3 23.9 21% 30.05 0.0
02 15:35 W 8 G 17 10.00 Fair CLR 64 21.6 20% 30.06 0.0
02 15:15 SW 7 G 16 10.00 Fair CLR 64 22.6 21% 30.07 0.0
02 14:55 W 3 G 16 10.00 Fair CLR 62.6 23.2 22% 30.08 0.0
02 14:35 SW 13 10.00 Fair CLR 63 24.4 23% 30.09 0.0
02 14:15 S 9 G 16 10.00 Fair CLR 61.3 23.4 23% 30.1 0.0
02 13:55 SW 10 G 18 10.00 Fair CLR 61.7 24.3 24% 30.1 0.0
02 13:35 W 9 10.00 Fair CLR 60.6 24.3 25% 30.12 0.0
02 13:15 SW 5 10.00 Fair CLR 60.1 25.2 26% 30.13 0.0
02 12:55 SW 5 10.00 Fair CLR 60.1 26.1 60.1 34.7 27% 30.13 0.0
02 12:35 Calm 10.00 Fair CLR 57.7 24.6 28% 30.14 0.0
02 12:15 W 6 10.00 Fair CLR 58.3 25.7 29% 30.14 0.0
02 11:55 W 10 10.00 Fair CLR 57.6 26.1 30% 30.15 0.0
02 11:35 SW 5 10.00 Fair CLR 56.3 25.9 31% 30.15 0.0
02 11:15 W 9 10.00 Fair CLR 55 24.3 30% 30.16 0.0
02 10:55 W 7 10.00 Fair CLR 54.9 24.6 31% 30.17 0.0
02 10:35 W 5 10.00 Fair CLR 53.8 24.6 32% 30.17 0.0
02 10:15 SW 6 10.00 Fair CLR 51.8 27.1 39% 30.17 0.0
02 09:50 W 3 10.00 Fair CLR 50.2 28 42% 30.17 0.0
02 09:35 SW 6 10.00 Fair CLR 48.4 29.3 48% 46 30.17 0.0
02 09:15 SW 5 10.00 Fair CLR 45.9 28.9 52% 44 30.17 0.0
02 08:55 W 3 10.00 Fair CLR 43.9 29.3 57% 30.17 0.0
02 08:35 W 5 10.00 Fair CLR 41.9 28.4 59% 40 30.17 0.0
02 08:15 Calm 10.00 Fair CLR 41 29.1 63% 30.17 0.0
02 07:55 Calm 10.00 Fair CLR 37.6 27.7 68% 30.16 0.0
02 07:35 Calm 10.00 Fair CLR 36 25.3 65% 30.16 0.0
02 07:15 Calm 10.00 Fair CLR 35.1 23.9 64% 30.16 0.0
02 06:55 Calm 10.00 Fair CLR 34.7 23.2 41.9 33.3 63% 30.16 0.0
02 06:35 Calm 10.00 Fair CLR 34.2 23 64% 30.16 0.0
02 06:15 W 3 10.00 Fair CLR 34 23.2 65% 30.16 0.0
02 05:55 Calm 10.00 Fair CLR 34.5 23 63% 30.15 0.0
02 05:35 Calm 10.00 Fair CLR 35.6 22.8 60% 30.15 0.0
02 05:15 NW 3 10.00 Fair CLR 37.6 22.1 54% 30.15 0.0
02 04:55 Calm 10.00 Fair CLR 35.8 23.5 61% 30.15 0.0
02 04:35 Calm 10.00 Fair CLR 37.6 22.5 54% 30.15 0.0
02 04:15 Calm 10.00 Fair CLR 38.8 22.1 51% 30.15 0.0
02 03:55 Calm 10.00 Fair CLR 37.8 22.6 54% 30.14 0.0
02 03:35 Calm 10.00 Fair CLR 37 22.8 56% 30.14 0.0
02 03:15 Calm 10.00 Fair CLR 38.8 22.6 52% 30.14 0.0
02 02:55 Calm 10.00 Fair CLR 39 22.6 52% 30.14 0.0
02 02:15 Calm 10.00 Fair CLR 41 22.3 47% 30.15 0.0
02 01:55 Calm 10.00 Fair CLR 41 22.3 47% 30.15 0.0
02 01:35 Calm 10.00 Fair CLR 41 22.5 48% 30.15 0.0
02 01:15 Calm 10.00 Fair CLR 41.9 22.3 46% 30.15 0.0
02 00:55 N 3 10.00 Fair CLR 41.5 22.8 54.7 41.5 47% 30.14 0.0
02 00:35 N 3 10.00 Fair CLR 42.3 23 46% 30.14 0.0
02 00:15 N 3 10.00 Fair CLR 44.6 21.9 41% 30.14 0.0
01 23:55 Calm 10.00 Fair CLR 42.8 23 46% 30.13 0.0
01 23:35 Calm 10.00 Fair CLR 45.1 22.3 40% 30.13 0.0
01 23:15 N 3 10.00 Fair CLR 46.6 21.6 37% 30.13 0.0
01 22:55 N 3 10.00 Fair CLR 46.6 21.7 37% 30.13 0.0
01 22:35 Calm 10.00 Fair CLR 46.9 21 36% 30.13 0.0
01 22:15 N 3 10.00 Fair CLR 47.3 20.8 35% 30.13 0.0
01 21:55 N 3 10.00 Fair CLR 47.7 20.8 35% 30.12 0.0
01 21:35 N 5 10.00 Fair CLR 47.8 20.5 34% 46 30.12 0.0
01 21:15 N 3 10.00 Fair CLR 48.4 20.3 33% 30.11 0.0
01 20:55 N 5 10.00 Fair CLR 48.6 20.8 33% 47 30.1 0.0
01 20:35 N 7 10.00 Fair CLR 49.3 21.4 33% 47 30.1 0.0
01 20:15 N 7 10.00 Fair CLR 50.2 21.7 33% 30.09 0.0
01 19:55 N 6 10.00 Fair CLR 51.8 21.6 31% 30.09 0.0
01 19:35 N 6 10.00 Fair CLR 53.1 21.6 29% 30.08 0.0
01 19:15 N 13 10.00 Partly Cloudy SCT075 54 20.7 27% 30.08 0.0
01 18:55 NW 10 G 16 10.00 Partly Cloudy SCT075 54.7 21.2 57 52.7 27% 30.08 0.0
01 18:35 N 15 G 21 10.00 Fair CLR 54 21.7 28% 30.08 0.0
01 18:15 NW 13 G 20 10.00 Partly Cloudy SCT075 55.4 20.8 26% 30.08 0.0
01 17:55 NW 14 G 22 10.00 Partly Cloudy SCT075 55.8 21.7 27% 30.08 0.0
01 17:35 N 16 G 22 10.00 Partly Cloudy SCT075 55.8 20.1 25% 30.07 0.0
01 17:15 NW 16 G 21 10.00 Partly Cloudy SCT075 55.9 21 26% 30.07 0.0
01 16:55 NW 10 G 20 10.00 Fair CLR 55.8 21 26% 30.07 0.0
01 16:35 NW 18 G 23 10.00 Fair CLR 55.6 20.1 25% 30.07 0.0
01 16:15 NW 10 G 23 10.00 Fair CLR 55.6 21.6 27% 30.07 0.0
01 15:55 NW 9 10.00 Fair CLR 57 24.4 28% 30.08 0.0
01 15:35 N 15 G 22 10.00 Fair CLR 55.4 20.3 25% 30.08 0.0
01 15:15 N 9 G 22 10.00 Partly Cloudy SCT060 54.9 23 29% 30.09 0.0
01 14:55 N 12 G 22 10.00 Partly Cloudy SCT060 54.5 24.6 31% 30.09 0.0
01 14:35 N 13 G 23 10.00 Partly Cloudy SCT060 55.6 26.6 33% 30.09 0.0
01 14:15 N 9 G 21 10.00 Partly Cloudy SCT060 55.4 26.1 32% 30.09 0.0
01 13:55 NW 15 G 22 10.00 Partly Cloudy SCT060 53.1 27.3 37% 30.09 0.0
01 13:35 N 14 G 18 10.00 Partly Cloudy SCT050 53.8 28.6 38% 30.09 0.0
01 13:15 N 16 G 22 10.00 Mostly Cloudy BKN050 53.8 29.1 39% 30.09 0.0
01 12:55 NW 14 G 21 10.00 Mostly Cloudy BKN048 53.6 30.6 54.1 38.3 41% 30.09 0.0
01 12:35 N 9 G 20 10.00 Partly Cloudy SCT048 53.6 31.1 42% 30.09 0.0
01 12:15 NW 10 G 21 10.00 Mostly Cloudy BKN045 BKN050 53.4 31.6 44% 30.1 0.0
01 11:55 N 17 G 21 10.00 Mostly Cloudy BKN044 52.2 31.8 46% 30.09 0.0
01 11:35 NW 14 G 21 10.00 Partly Cloudy SCT033 SCT039 51.4 33.1 50% 30.09 0.0
01 11:15 N 8 G 20 10.00 Mostly Cloudy BKN031 BKN039 50.4 34.9 55% 30.1 0.0
01 10:55 NW 10 G 18 10.00 Partly Cloudy SCT029 50.2 34.9 56% 30.09 0.0
01 10:35 NW 12 G 17 10.00 Partly Cloudy SCT027 49.3 34.9 58% 45 30.09 0.0
01 10:15 N 9 10.00 Fair CLR 48.7 35.2 60% 45 30.08 0.0
01 09:55 N 12 10.00 Fair CLR 47.3 34.5 61% 43 30.08 0.0
01 09:35 NW 8 10.00 Fair CLR 45.9 34.2 64% 42 30.08 0.0
01 09:15 NW 8 10.00 Fair CLR 44.1 33.4 66% 40 30.08 0.0
01 08:55 NW 8 10.00 Fair CLR 43 32.7 67% 39 30.08 0.0
01 08:35 NW 9 10.00 Fair CLR 42.3 32.4 68% 37 30.08 0.0
01 08:15 NW 13 10.00 Fair CLR 41.7 32 68% 35 30.07 0.0
01 07:55 NW 12 10.00 Fair CLR 41.2 31.5 68% 35 30.07 0.0
01 07:35 NW 5 10.00 Fair CLR 39.4 31.6 74% 37 30.07 0.0
01 07:15 W 7 10.00 Fair CLR 39.4 30.2 70% 35 30.06 0.0
01 06:55 W 7 10.00 Fair CLR 38.5 30.2 41.4 37.4 72% 34 30.06 0.0
01 06:35 W 7 10.00 Fair CLR 38.5 30.2 72% 34 30.06 0.0
01 06:15 W 6 10.00 Partly Cloudy SCT080 39 29.8 70% 35 30.05 0.0
01 05:55 W 5 10.00 Mostly Cloudy BKN080 39.6 29.8 68% 37 30.05 0.0
01 05:35 W 7 10.00 Partly Cloudy SCT080 39.4 29.3 67% 35 30.06 0.0
01 05:15 W 6 10.00 Partly Cloudy SCT090 40.5 29.1 64% 37 30.06 0.0
01 04:55 W 6 10.00 Partly Cloudy SCT090 41.4 28.9 61% 38 30.05 0.0
01 04:35 W 5 10.00 Overcast SCT075 OVC090 41.4 28.9 61% 39 30.05 0.0
01 04:15 W 5 10.00 Overcast SCT075 OVC090 40.6 30 66% 38 30.05 0.0
01 03:55 SW 3 10.00 Mostly Cloudy BKN090 40.3 28.8 64% 30.06 0.0
01 03:35 SW 5 10.00 Fair CLR 40.6 28.2 61% 38 30.05 0.0
01 03:15 SW 6 10.00 Fair CLR 41 28.2 60% 38 30.05 0.0
01 02:55 SW 6 10.00 Partly Cloudy SCT090 40.3 28.6 63% 37 30.06 0.0
01 02:35 SW 6 10.00 Partly Cloudy SCT090 40.1 28.6 64% 37 30.06 0.0
01 02:15 SW 6 10.00 Fair CLR 39.2 28.4 65% 36 30.07 0.0
01 01:55 SW 5 10.00 Fair CLR 37.8 29.3 72% 35 30.07 0.0
01 01:35 S 5 10.00 Partly Cloudy SCT085 39.2 29.3 68% 36 30.08 0.0
01 01:15 S 5 10.00 Mostly Cloudy BKN085 40.8 28.2 61% 38 30.08 0.0
01 00:55 Calm 10.00 Overcast SCT085 OVC100 41 28 52.7 39.9 60% 30.08 0.0
01 00:35 S 3 10.00 Mostly Cloudy BKN100 40.6 27.3 59% 30.08 0.0
01 00:15 Calm 10.00 Fair CLR 41.7 26.4 55% 30.08 0.0
30 23:55 Calm 10.00 Fair CLR 41.5 26.6 55% 30.08 0.0
30 23:35 Calm 10.00 Fair CLR 41.7 25.7 53% 30.09 0.0
30 23:15 Calm 10.00 Fair CLR 40.1 27.1 60% 30.09 0.0
30 22:55 Calm 10.00 Fair CLR 44.8 23.9 44% 30.09 0.0
30 22:35 Calm 10.00 Fair CLR 45.7 23.4 41% 30.1 0.0
30 22:15 Calm 10.00 Fair CLR 44.6 24.4 45% 30.1 0.0
30 21:55 Calm 10.00 Fair CLR 46.4 23.5 41% 30.1 0.0
30 21:35 Calm 10.00 Fair CLR 46.9 23.5 40% 30.09 0.0
30 21:15 Calm 10.00 Fair CLR 47.7 23.7 39% 30.08 0.0
30 20:55 N 3 10.00 Fair CLR 48.7 23 36% 30.09 0.0
30 20:35 N 5 10.00 Fair CLR 48.4 24.3 39% 47 30.08 0.0
30 20:15 N 5 10.00 Fair CLR 49.5 24.4 38% 48 30.08 0.0
30 19:55 N 10 10.00 Fair CLR 51.1 23.7 34% 30.08 0.0
30 19:35 NW 12 10.00 Fair CLR 52.3 25.2 35% 30.08 0.0
30 19:15 NW 8 10.00 Fair CLR 51.1 25.3 37% 30.07 0.0
30 18:55 NW 13 G 20 10.00 Partly Cloudy SCT065 SCT090 52.9 24.6 56.3 52 33% 30.07 0.0
30 18:35 NW 8 10.00 Overcast BKN065 OVC090 53.8 25.7 34% 30.07 0.0
30 18:15 NW 14 G 18 10.00 Overcast BKN065 OVC090 53.2 25.7 34% 30.07 0.0
30 17:55 N 13 G 18 10.00 Mostly Cloudy SCT070 BKN075 BKN090 53.2 26.2 35% 30.07 0.0
30 17:35 N 13 10.00 Overcast SCT070 OVC090 54 27.9 37% 30.07 0.0
30 17:15 NW 14 G 20 10.00 Mostly Cloudy BKN090 53.4 26.6 36% 30.07 0.0
Date Time (cdt) Wind (mph) Vis. (mi.) Weather Sky Cond. Air Dwpt Max. Min. Relative Humidity Wind Chill (°F) Heat Index (°F) altimeter (in) sea level (mb) 1 hr 3 hr 6 hr
6 hour
Temperature (ºF) Pressure Precipitation (in)